Time;durP1;ratioP1;P1;durP2;ratioP2;P2;SDS_P1;SDS_P2;PMS_P1;PMS_P2;Temp;Humidity;BMP_temperature;BMP_pressure;BME280_temperature;BME280_humidity;BME280_pressure;Samples;Min_cycle;Max_cycle;Signal;HPM_P1;HPM_P2
2022/11/26 00:01:00;;;;;;;122.35;60.38;;;4.80;99.90;;;;;;5070132;28;20055;-64
2022/11/26 00:03:26;;;;;;;113.30;59.03;;;4.70;99.90;;;;;;5070173;28;20070;-62
2022/11/26 00:05:54;;;;;;;119.25;58.83;;;4.70;99.90;;;;;;5070101;28;20020;-61
2022/11/26 00:08:23;;;;;;;112.32;57.45;;;4.70;99.90;;;;;;5069962;28;20021;-64
2022/11/26 00:10:52;;;;;;;115.47;55.65;;;4.70;99.90;;;;;;5062055;28;20013;-61
2022/11/26 00:13:24;;;;;;;105.22;54.42;;;4.70;99.90;;;;;;5050061;28;20032;-58
2022/11/26 00:15:51;;;;;;;101.70;51.95;;;4.70;99.90;;;;;;5049950;28;20457;-63
2022/11/26 00:18:17;;;;;;;109.57;54.45;;;4.70;99.90;;;;;;5049768;28;20031;-61
2022/11/26 00:20:44;;;;;;;111.00;53.05;;;4.70;99.90;;;;;;5050090;28;20033;-66
2022/11/26 00:23:24;;;;;;;105.25;52.95;;;4.60;99.90;;;;;;5049775;28;20017;-65
2022/11/26 00:26:00;;;;;;;108.20;51.90;;;4.60;99.90;;;;;;5050082;28;20036;-59
2022/11/26 00:28:35;;;;;;;104.57;51.13;;;4.60;99.90;;;;;;5049851;28;20108;-60
2022/11/26 00:31:05;;;;;;;102.75;52.42;;;4.60;99.90;;;;;;5049904;28;20021;-63
2022/11/26 00:33:31;;;;;;;106.40;49.75;;;4.60;99.90;;;;;;5049726;28;20035;-59
2022/11/26 00:36:01;;;;;;;104.63;53.95;;;4.60;99.90;;;;;;5049682;28;20128;-64
2022/11/26 00:38:28;;;;;;;103.60;52.25;;;4.60;99.90;;;;;;5049572;28;20487;-61
2022/11/26 00:40:54;;;;;;;110.78;54.10;;;4.60;99.90;;;;;;5049954;28;20119;-57
2022/11/26 00:43:19;;;;;;;141.98;64.15;;;4.50;99.90;;;;;;5049635;28;20116;-58
2022/11/26 00:45:46;;;;;;;125.60;56.83;;;4.50;99.90;;;;;;5049813;28;20025;-59
2022/11/26 00:48:14;;;;;;;135.38;61.83;;;4.50;99.90;;;;;;5049600;28;20484;-61
2022/11/26 00:50:49;;;;;;;94.88;48.97;;;4.50;99.90;;;;;;5049649;28;20025;-62
2022/11/26 00:53:19;;;;;;;97.32;50.75;;;4.40;99.90;;;;;;5048268;28;20037;-63
2022/11/26 00:55:48;;;;;;;99.10;51.90;;;4.40;99.90;;;;;;5049596;28;20816;-62
2022/11/26 00:58:26;;;;;;;98.50;49.72;;;4.30;99.90;;;;;;5049694;28;20036;-61
2022/11/26 01:00:53;;;;;;;90.65;47.30;;;4.20;99.90;;;;;;5049672;28;20021;-62
2022/11/26 01:03:18;;;;;;;93.75;47.05;;;4.10;99.90;;;;;;5049568;28;20116;-60
2022/11/26 01:05:47;;;;;;;93.78;48.13;;;4.10;99.90;;;;;;5049624;28;20096;-63
2022/11/26 01:08:36;;;;;;;82.22;42.33;;;4.10;99.90;;;;;;5049297;28;20426;-61
2022/11/26 01:11:04;;;;;;;86.05;46.13;;;4.00;99.90;;;;;;5055670;28;20040;-61
2022/11/26 01:13:30;;;;;;;93.88;50.13;;;4.00;99.90;;;;;;5069429;28;20058;-64
2022/11/26 01:15:58;;;;;;;100.55;51.35;;;3.90;99.90;;;;;;5069422;28;20066;-59
2022/11/26 01:18:24;;;;;;;108.03;53.47;;;4.00;99.90;;;;;;5069464;28;20432;-59
2022/11/26 01:20:49;;;;;;;115.68;55.22;;;4.00;99.90;;;;;;5069326;28;20032;-59
2022/11/26 01:23:18;;;;;;;117.85;55.15;;;4.00;99.90;;;;;;5071654;28;20038;-60
2022/11/26 01:25:45;;;;;;;113.22;56.30;;;4.00;99.90;;;;;;5073105;28;20529;-63
2022/11/26 01:28:13;;;;;;;114.15;52.70;;;4.00;99.90;;;;;;5072989;28;20032;-58
2022/11/26 01:30:40;;;;;;;98.15;50.85;;;4.10;99.90;;;;;;5071792;28;20025;-63
2022/11/26 01:33:05;;;;;;;96.93;51.40;;;4.00;99.90;;;;;;5073224;28;20666;-64
2022/11/26 01:35:31;;;;;;;102.80;54.42;;;3.80;99.90;;;;;;5072681;28;20131;-63
2022/11/26 01:37:57;;;;;;;103.07;53.40;;;3.90;99.90;;;;;;5072670;28;20112;-63
2022/11/26 01:40:28;;;;;;;96.22;48.90;;;3.90;99.90;;;;;;5073115;28;20028;-63
2022/11/26 01:43:25;;;;;;;92.65;46.78;;;3.90;99.90;;;;;;5072813;28;20119;-64
2022/11/26 01:45:51;;;;;;;83.93;43.75;;;3.70;99.90;;;;;;5072654;28;20028;-66
2022/11/26 01:48:30;;;;;;;94.07;46.47;;;3.70;99.90;;;;;;5072848;28;20032;-62
2022/11/26 01:51:00;;;;;;;105.80;50.47;;;3.70;99.90;;;;;;5072642;28;20492;-62
2022/11/26 01:53:31;;;;;;;102.72;50.67;;;3.50;99.90;;;;;;5052180;28;20020;-64
2022/11/26 01:56:01;;;;;;;104.97;50.92;;;3.60;99.90;;;;;;5052101;28;20029;-61
2022/11/26 01:58:32;;;;;;;115.03;54.45;;;3.60;99.90;;;;;;5052366;28;20510;-64
2022/11/26 02:00:58;;;;;;;112.50;55.20;;;3.60;99.90;;;;;;5052691;28;20043;-61
2022/11/26 02:03:25;;;;;;;95.40;49.17;;;3.50;99.90;;;;;;5052707;28;20029;-61
2022/11/26 02:06:02;;;;;;;105.82;50.63;;;3.40;99.90;;;;;;5052527;28;20032;-62
2022/11/26 02:08:30;;;;;;;107.28;50.95;;;3.30;99.90;;;;;;5052230;28;20399;-61
2022/11/26 02:10:56;;;;;;;115.97;51.90;;;3.30;99.90;;;;;;5052613;28;20029;-61
2022/11/26 02:13:22;;;;;;;116.80;53.78;;;3.30;99.90;;;;;;5052448;28;20028;-62
2022/11/26 02:15:59;;;;;;;116.30;56.00;;;3.20;99.90;;;;;;5052251;28;20032;-61
2022/11/26 02:18:28;;;;;;;115.97;55.30;;;3.20;99.90;;;;;;5052204;28;20698;-67
2022/11/26 02:21:04;;;;;;;122.60;56.50;;;3.20;99.90;;;;;;5052507;28;20041;-59
2022/11/26 02:23:40;;;;;;;119.00;57.53;;;3.20;99.90;;;;;;5052287;28;20119;-60
2022/11/26 02:26:24;;;;;;;119.07;59.08;;;3.10;99.90;;;;;;5052216;28;20028;-65
2022/11/26 02:29:05;;;;;;;133.85;60.10;;;3.10;99.90;;;;;;5052005;28;20033;-61
2022/11/26 02:31:52;;;;;;;117.20;57.03;;;3.20;99.90;;;;;;5051996;28;20500;-61
2022/11/26 02:34:29;;;;;;;140.68;60.83;;;3.20;99.90;;;;;;5051781;28;20036;-62
2022/11/26 02:37:09;;;;;;;141.55;63.25;;;3.10;99.90;;;;;;5051907;28;20057;-60
2022/11/26 02:39:35;;;;;;;129.65;62.67;;;3.20;99.90;;;;;;5051874;28;20692;-60
2022/11/26 02:42:03;;;;;;;128.30;61.45;;;3.10;99.90;;;;;;5051867;28;20058;-58
2022/11/26 02:44:40;;;;;;;115.88;57.78;;;3.20;99.90;;;;;;5051949;28;20029;-59
2022/11/26 02:47:09;;;;;;;95.07;47.15;;;3.10;99.90;;;;;;5051840;28;20029;-59
2022/11/26 02:49:37;;;;;;;90.05;43.63;;;3.10;99.90;;;;;;5051713;28;20037;-60
2022/11/26 02:52:05;;;;;;;81.07;40.67;;;3.00;99.90;;;;;;5051794;28;20500;-57
2022/11/26 02:54:33;;;;;;;90.88;46.45;;;2.90;99.90;;;;;;5051522;28;20033;-59
2022/11/26 02:57:02;;;;;;;110.47;53.05;;;2.90;99.90;;;;;;5051510;28;20415;-58
2022/11/26 02:59:29;;;;;;;103.97;51.40;;;3.00;99.90;;;;;;5051561;28;20025;-61
2022/11/26 03:02:18;;;;;;;98.57;51.67;;;3.00;99.90;;;;;;5051615;28;20040;-62
2022/11/26 03:04:50;;;;;;;92.47;46.38;;;2.90;99.90;;;;;;5051594;28;20029;-64
2022/11/26 03:07:18;;;;;;;101.32;48.33;;;2.80;99.90;;;;;;5051508;28;20056;-66
2022/11/26 03:09:57;;;;;;;99.88;45.53;;;2.90;99.90;;;;;;5051208;28;20128;-65
2022/11/26 03:12:23;;;;;;;75.80;39.15;;;2.80;99.90;;;;;;5051430;28;20044;-60
2022/11/26 03:14:49;;;;;;;83.05;41.97;;;2.80;99.90;;;;;;5051397;28;20028;-59
2022/11/26 03:17:15;;;;;;;94.22;46.88;;;2.70;99.90;;;;;;5051079;28;20679;-57
2022/11/26 03:19:41;;;;;;;103.05;46.78;;;2.80;99.90;;;;;;5050976;28;20044;-64
2022/11/26 03:22:07;;;;;;;84.43;44.00;;;2.80;99.90;;;;;;5051172;28;20072;-65
2022/11/26 03:24:33;;;;;;;92.78;48.53;;;2.80;99.90;;;;;;5049732;28;20148;-61
2022/11/26 03:26:59;;;;;;;103.57;48.60;;;2.90;99.90;;;;;;5050889;28;20055;-63
2022/11/26 03:29:25;;;;;;;96.90;45.95;;;2.90;99.90;;;;;;5051289;28;20120;-61
2022/11/26 03:31:50;;;;;;;105.13;49.55;;;2.90;99.90;;;;;;5050905;28;20021;-61
2022/11/26 03:34:16;;;;;;;92.47;46.55;;;2.90;99.90;;;;;;5050770;28;20063;-64
2022/11/26 03:36:42;;;;;;;92.35;44.70;;;2.80;99.90;;;;;;5050541;28;20045;-63
2022/11/26 03:39:07;;;;;;;92.60;46.22;;;2.90;99.90;;;;;;5050876;28;20032;-59
2022/11/26 03:41:33;;;;;;;103.25;49.08;;;2.90;99.90;;;;;;5050829;28;20474;-58
2022/11/26 03:43:58;;;;;;;88.82;43.90;;;3.10;99.90;;;;;;5050584;28;20548;-62
2022/11/26 03:46:24;;;;;;;84.38;43.67;;;3.00;99.90;;;;;;5050286;28;20040;-65
2022/11/26 03:48:50;;;;;;;97.85;47.63;;;3.00;99.90;;;;;;5049077;28;20020;-65
2022/11/26 03:51:15;;;;;;;82.55;42.38;;;3.00;99.90;;;;;;5050830;28;20020;-62
2022/11/26 03:53:41;;;;;;;93.07;44.67;;;2.90;99.90;;;;;;5050434;28;20104;-61
2022/11/26 03:56:07;;;;;;;78.22;42.58;;;2.90;99.90;;;;;;5050305;28;20045;-62
2022/11/26 03:58:33;;;;;;;83.80;42.78;;;2.90;99.90;;;;;;5050667;28;20033;-64
2022/11/26 04:00:59;;;;;;;79.45;40.72;;;2.80;99.90;;;;;;5050281;28;20431;-63
2022/11/26 04:03:25;;;;;;;93.35;45.72;;;2.80;99.90;;;;;;5049053;28;20090;-65
2022/11/26 04:05:50;;;;;;;89.85;44.25;;;2.70;99.90;;;;;;5050113;28;20083;-61
2022/11/26 04:08:16;;;;;;;86.40;43.35;;;2.80;99.90;;;;;;5050499;28;20036;-61
2022/11/26 04:10:42;;;;;;;84.30;41.67;;;2.70;99.90;;;;;;5050285;28;20358;-62
2022/11/26 04:13:07;;;;;;;81.63;41.00;;;2.60;99.90;;;;;;5050258;28;20647;-65
2022/11/26 04:15:33;;;;;;;78.00;38.95;;;2.60;99.90;;;;;;5049832;28;20037;-62
2022/11/26 04:17:59;;;;;;;66.70;37.13;;;2.50;99.90;;;;;;5049757;28;20025;-63
2022/11/26 04:20:25;;;;;;;73.75;37.53;;;2.50;99.90;;;;;;5050445;28;20507;-60
2022/11/26 04:22:50;;;;;;;73.25;41.63;;;2.50;99.90;;;;;;5050403;28;20507;-59
2022/11/26 04:25:16;;;;;;;74.90;42.33;;;2.50;99.90;;;;;;5049801;28;20043;-59
2022/11/26 04:27:42;;;;;;;77.00;40.28;;;2.40;99.90;;;;;;5049933;28;20025;-59
2022/11/26 04:30:08;;;;;;;76.22;40.05;;;2.40;99.90;;;;;;5049896;28;20028;-61
2022/11/26 04:32:35;;;;;;;70.30;40.47;;;2.40;99.90;;;;;;5049855;28;20033;-58
2022/11/26 04:35:01;;;;;;;71.28;39.10;;;2.30;99.90;;;;;;5049670;28;20299;-62
2022/11/26 04:37:26;;;;;;;89.50;44.83;;;2.40;99.90;;;;;;5049774;28;20079;-63
2022/11/26 04:39:52;;;;;;;84.22;44.72;;;2.40;99.90;;;;;;5049922;28;20128;-62
2022/11/26 04:42:18;;;;;;;95.03;49.03;;;2.30;99.90;;;;;;5049748;28;20029;-66
2022/11/26 04:44:43;;;;;;;100.78;50.15;;;2.20;99.90;;;;;;5049867;28;20102;-63
2022/11/26 04:47:09;;;;;;;121.28;53.38;;;2.30;99.90;;;;;;5049747;28;20067;-58
2022/11/26 04:49:34;;;;;;;123.55;59.50;;;2.50;99.90;;;;;;5049862;28;20025;-59
2022/11/26 04:52:00;;;;;;;113.38;54.05;;;2.70;99.90;;;;;;5049779;28;20518;-61
2022/11/26 04:54:26;;;;;;;105.97;51.30;;;2.80;99.90;;;;;;5049714;28;20531;-63
2022/11/26 04:56:51;;;;;;;104.00;51.90;;;2.80;99.90;;;;;;5049640;28;20480;-63
2022/11/26 04:59:17;;;;;;;112.13;55.70;;;2.80;99.90;;;;;;5053551;28;20112;-62
2022/11/26 05:01:43;;;;;;;101.88;50.65;;;2.90;99.90;;;;;;5053701;28;20025;-64
2022/11/26 05:04:08;;;;;;;92.95;44.72;;;2.80;99.90;;;;;;5053864;28;20033;-63
2022/11/26 05:06:34;;;;;;;95.40;47.85;;;2.80;99.90;;;;;;5053561;28;20021;-63
2022/11/26 05:09:00;;;;;;;101.82;52.15;;;2.70;99.90;;;;;;5053408;28;20021;-60
2022/11/26 05:11:26;;;;;;;107.78;54.45;;;2.60;99.90;;;;;;5053491;28;20152;-65
2022/11/26 05:13:51;;;;;;;104.50;54.90;;;2.60;99.90;;;;;;5053690;28;20036;-59
2022/11/26 05:16:17;;;;;;;102.43;52.70;;;2.60;99.90;;;;;;5052943;28;20036;-58
2022/11/26 05:18:42;;;;;;;123.05;56.47;;;2.60;99.90;;;;;;5053641;28;20455;-59
2022/11/26 05:21:08;;;;;;;139.00;64.82;;;2.70;99.90;;;;;;5053191;28;20032;-62
2022/11/26 05:23:34;;;;;;;157.07;72.00;;;2.70;99.90;;;;;;5053105;28;20056;-64
2022/11/26 05:25:59;;;;;;;184.13;82.43;;;2.60;99.90;;;;;;5053208;28;20029;-63
2022/11/26 05:28:25;;;;;;;191.57;85.50;;;2.60;99.90;;;;;;5053160;28;20707;-62
2022/11/26 05:31:01;;;;;;;195.23;86.65;;;2.60;99.90;;;;;;5053209;28;20020;-62
2022/11/26 05:33:28;;;;;;;200.23;86.53;;;2.60;99.90;;;;;;5052968;28;20107;-60
2022/11/26 05:35:53;;;;;;;186.05;85.18;;;2.60;99.90;;;;;;5052775;28;20068;-59
2022/11/26 05:38:19;;;;;;;187.77;82.68;;;2.60;99.90;;;;;;5052823;28;20021;-59
2022/11/26 05:40:44;;;;;;;188.77;85.97;;;2.60;99.90;;;;;;5052851;28;20041;-61
2022/11/26 05:43:10;;;;;;;193.00;86.80;;;2.60;99.90;;;;;;5052803;28;20692;-64
2022/11/26 05:45:36;;;;;;;192.50;85.65;;;2.50;99.90;;;;;;5052696;28;20025;-65
2022/11/26 05:48:01;;;;;;;181.15;84.38;;;2.60;99.90;;;;;;5052768;28;20117;-63
2022/11/26 05:50:27;;;;;;;178.05;82.68;;;2.60;99.90;;;;;;5052669;28;20025;-62
2022/11/26 05:52:53;;;;;;;188.15;89.25;;;2.60;99.90;;;;;;5052547;28;20031;-65
2022/11/26 05:55:18;;;;;;;159.57;73.25;;;2.60;99.90;;;;;;5052478;28;20028;-60
2022/11/26 05:57:45;;;;;;;128.55;61.67;;;2.70;99.90;;;;;;5052497;28;20432;-58
2022/11/26 06:00:12;;;;;;;133.43;66.85;;;2.80;99.90;;;;;;5052599;28;20028;-63
2022/11/26 06:02:38;;;;;;;127.32;60.88;;;2.90;99.90;;;;;;5052370;28;20033;-58
2022/11/26 06:05:04;;;;;;;189.02;84.75;;;3.00;99.90;;;;;;5052589;28;20028;-59
2022/11/26 06:07:30;;;;;;;164.47;78.53;;;3.00;99.90;;;;;;5051031;28;20032;-63
2022/11/26 06:09:55;;;;;;;130.07;67.03;;;2.90;99.90;;;;;;5051941;28;20033;-64
2022/11/26 06:12:21;;;;;;;118.82;59.15;;;3.00;99.90;;;;;;5052433;28;20025;-64
2022/11/26 06:14:50;;;;;;;174.68;77.55;;;3.10;99.90;;;;;;5052438;28;20037;-59
2022/11/26 06:17:15;;;;;;;162.15;76.43;;;3.10;99.90;;;;;;5050791;28;20051;-60
2022/11/26 06:19:41;;;;;;;157.00;75.30;;;3.10;99.90;;;;;;5052478;28;20021;-60
2022/11/26 06:22:07;;;;;;;169.85;78.43;;;3.10;99.90;;;;;;5052365;28;20053;-63
2022/11/26 06:24:33;;;;;;;119.95;61.55;;;3.00;99.90;;;;;;5052253;28;20451;-62
2022/11/26 06:26:59;;;;;;;116.35;58.90;;;3.10;99.90;;;;;;5051939;28;20499;-60
2022/11/26 06:29:24;;;;;;;111.63;55.85;;;3.10;99.90;;;;;;5052301;28;20017;-60
2022/11/26 06:31:52;;;;;;;116.50;58.42;;;3.20;99.90;;;;;;5051995;28;20383;-60
2022/11/26 06:34:18;;;;;;;117.43;59.95;;;3.20;99.90;;;;;;5052030;28;20025;-61
2022/11/26 06:36:44;;;;;;;139.45;70.75;;;3.30;99.90;;;;;;5051784;28;20064;-62
2022/11/26 06:39:10;;;;;;;150.07;73.68;;;3.30;99.90;;;;;;5052138;28;20423;-61
2022/11/26 06:41:36;;;;;;;153.13;76.87;;;3.40;99.90;;;;;;5051646;28;20036;-61
2022/11/26 06:44:02;;;;;;;143.70;77.25;;;3.40;99.90;;;;;;5051956;28;20024;-61
2022/11/26 06:46:28;;;;;;;151.27;71.38;;;3.40;99.90;;;;;;5052184;28;20035;-59
2022/11/26 06:48:54;;;;;;;152.38;72.90;;;3.40;99.90;;;;;;5051585;28;20025;-60
2022/11/26 06:51:20;;;;;;;142.43;71.78;;;3.50;99.90;;;;;;5051711;28;20029;-62
2022/11/26 06:53:47;;;;;;;146.68;71.65;;;3.50;99.90;;;;;;5051748;28;20032;-60
2022/11/26 06:56:15;;;;;;;138.70;68.72;;;3.50;99.90;;;;;;5051535;28;20033;-59
2022/11/26 06:58:41;;;;;;;132.07;69.20;;;3.60;99.90;;;;;;5051628;28;20092;-60
2022/11/26 07:01:09;;;;;;;126.85;65.68;;;3.60;99.90;;;;;;5051699;28;20033;-62
2022/11/26 07:03:35;;;;;;;129.70;66.88;;;3.60;99.90;;;;;;5056381;28;20174;-59
2022/11/26 07:06:00;;;;;;;125.50;66.18;;;3.60;99.90;;;;;;5067824;28;20108;-61
2022/11/26 07:08:26;;;;;;;139.70;70.40;;;3.60;99.90;;;;;;5061447;28;20033;-60
2022/11/26 07:10:52;;;;;;;147.85;77.45;;;3.60;99.90;;;;;;5058110;28;20029;-60
2022/11/26 07:13:17;;;;;;;190.98;97.25;;;3.60;99.90;;;;;;5047130;28;20036;-59
2022/11/26 07:15:43;;;;;;;181.18;95.57;;;3.70;99.90;;;;;;5050084;28;20028;-59
2022/11/26 07:18:08;;;;;;;156.00;84.75;;;3.80;99.90;;;;;;5051293;28;20029;-62
2022/11/26 07:20:35;;;;;;;111.35;57.90;;;3.80;99.90;;;;;;5059217;28;20519;-64
2022/11/26 07:23:01;;;;;;;106.57;55.45;;;3.80;99.90;;;;;;5062460;28;20032;-62
2022/11/26 07:25:28;;;;;;;98.45;51.60;;;3.80;99.90;;;;;;5070854;28;20040;-63
2022/11/26 07:27:54;;;;;;;109.97;56.05;;;3.90;99.90;;;;;;5059777;28;20033;-62
2022/11/26 07:30:20;;;;;;;108.50;54.80;;;3.90;99.90;;;;;;5032892;28;20128;-59
2022/11/26 07:32:46;;;;;;;117.53;58.05;;;4.00;99.90;;;;;;5059499;28;20539;-58
2022/11/26 07:35:11;;;;;;;122.88;62.05;;;4.10;99.90;;;;;;5066310;28;20410;-63
2022/11/26 07:37:37;;;;;;;129.25;61.65;;;4.20;99.90;;;;;;5070774;28;20028;-65
2022/11/26 07:40:05;;;;;;;116.50;58.65;;;4.20;99.90;;;;;;5070684;28;20410;-65
2022/11/26 07:42:32;;;;;;;117.05;58.60;;;4.20;99.90;;;;;;5068601;28;20036;-64
2022/11/26 07:44:58;;;;;;;118.25;58.83;;;4.20;99.90;;;;;;5068755;28;20435;-63
2022/11/26 07:47:24;;;;;;;129.75;65.72;;;4.20;99.90;;;;;;5039506;28;20080;-65
2022/11/26 07:49:49;;;;;;;136.85;65.75;;;4.30;99.90;;;;;;5036985;28;20036;-63
2022/11/26 07:52:15;;;;;;;137.88;67.70;;;4.30;99.90;;;;;;5049709;28;20094;-63
2022/11/26 07:54:41;;;;;;;146.02;72.63;;;4.30;99.90;;;;;;5050605;28;20380;-62
2022/11/26 07:57:06;;;;;;;135.10;67.45;;;4.40;99.90;;;;;;5041695;28;20120;-57
2022/11/26 07:59:32;;;;;;;138.07;68.13;;;4.40;99.90;;;;;;5029053;28;20029;-58
2022/11/26 08:01:58;;;;;;;145.52;68.80;;;4.40;99.90;;;;;;5026780;28;20079;-58
2022/11/26 08:04:23;;;;;;;148.18;68.35;;;4.40;99.90;;;;;;5026839;28;20022;-59
2022/11/26 08:06:49;;;;;;;160.68;73.75;;;4.50;99.90;;;;;;5029397;28;20076;-64
2022/11/26 08:09:18;;;;;;;146.05;71.18;;;4.50;99.90;;;;;;5028973;28;20033;-65
2022/11/26 08:11:43;;;;;;;146.07;71.07;;;4.60;99.90;;;;;;5028151;28;20060;-66
2022/11/26 08:14:11;;;;;;;149.48;71.43;;;4.60;99.90;;;;;;5028511;28;20488;-58
2022/11/26 08:16:37;;;;;;;156.32;73.28;;;4.60;99.90;;;;;;5028764;28;20040;-61
2022/11/26 08:19:05;;;;;;;166.47;79.27;;;4.70;99.90;;;;;;5029932;28;20025;-58
2022/11/26 08:21:31;;;;;;;218.10;97.15;;;4.70;99.90;;;;;;5029626;28;20043;-61
2022/11/26 08:23:57;;;;;;;246.35;105.85;;;4.70;99.90;;;;;;5029550;28;20096;-61
2022/11/26 08:26:26;;;;;;;200.40;87.32;;;4.80;99.90;;;;;;5030219;28;20445;-62
2022/11/26 08:28:52;;;;;;;183.30;78.50;;;4.80;99.90;;;;;;5030127;28;20025;-65
2022/11/26 08:31:18;;;;;;;173.43;75.63;;;4.90;99.90;;;;;;5029983;28;20052;-62
2022/11/26 08:33:44;;;;;;;159.75;72.68;;;4.80;99.90;;;;;;5029895;28;20025;-63
2022/11/26 08:36:10;;;;;;;151.02;70.50;;;4.90;99.90;;;;;;5029357;28;20061;-64
2022/11/26 08:38:37;;;;;;;144.27;66.78;;;4.90;99.90;;;;;;5030014;28;20040;-61
2022/11/26 08:41:08;;;;;;;146.65;65.63;;;4.90;99.90;;;;;;5029966;28;20034;-64
2022/11/26 08:43:35;;;;;;;137.80;67.65;;;4.90;99.90;;;;;;5029575;28;20116;-68
2022/11/26 08:46:01;;;;;;;156.20;75.70;;;4.90;99.90;;;;;;5029893;28;20022;-63
2022/11/26 08:48:28;;;;;;;155.88;75.43;;;4.90;99.90;;;;;;5030081;28;20029;-62
2022/11/26 08:51:04;;;;;;;;;;;4.90;99.90;;;;;;5055531;28;20039;-57
2022/11/26 08:53:32;;;;;;;153.77;70.43;;;4.90;99.90;;;;;;5069735;28;19911;-62
2022/11/26 08:56:02;;;;;;;167.90;76.28;;;4.90;99.90;;;;;;5066264;28;20037;-63
2022/11/26 08:58:28;;;;;;;172.80;80.18;;;5.00;99.90;;;;;;5055760;28;20738;-60
2022/11/26 09:00:54;;;;;;;188.90;89.22;;;5.00;99.90;;;;;;5057981;28;20028;-61
2022/11/26 09:03:20;;;;;;;173.35;77.97;;;5.00;99.90;;;;;;5059155;28;20463;-60
2022/11/26 09:05:45;;;;;;;172.95;79.30;;;5.00;99.90;;;;;;5057733;28;20032;-62
2022/11/26 09:08:11;;;;;;;185.27;89.07;;;4.90;99.90;;;;;;5058202;28;20523;-66
2022/11/26 09:10:37;;;;;;;178.70;82.72;;;5.00;99.90;;;;;;5059313;28;20104;-62
2022/11/26 09:13:02;;;;;;;174.70;82.03;;;5.00;99.90;;;;;;5057020;28;20667;-61
2022/11/26 09:15:28;;;;;;;154.43;72.15;;;5.10;99.90;;;;;;5057193;28;20024;-61
2022/11/26 09:17:54;;;;;;;177.80;78.35;;;5.10;99.90;;;;;;5058220;28;20029;-61
2022/11/26 09:20:20;;;;;;;164.38;80.03;;;5.10;99.90;;;;;;5049473;28;20021;-62
2022/11/26 09:22:46;;;;;;;162.65;75.13;;;5.10;99.90;;;;;;5047636;28;20099;-61
2022/11/26 09:25:11;;;;;;;164.25;79.55;;;5.20;99.90;;;;;;5049238;28;20455;-62
2022/11/26 09:27:37;;;;;;;168.15;79.85;;;5.20;99.90;;;;;;5047596;28;20029;-66
2022/11/26 09:30:03;;;;;;;161.88;76.72;;;5.20;99.90;;;;;;5049210;28;20059;-58
2022/11/26 09:32:29;;;;;;;165.53;82.77;;;5.30;99.90;;;;;;5056895;28;20035;-60
2022/11/26 09:34:54;;;;;;;178.90;81.95;;;5.30;99.90;;;;;;5057651;28;20029;-63
2022/11/26 09:37:20;;;;;;;184.20;84.72;;;5.30;99.90;;;;;;5058774;28;20044;-60
2022/11/26 09:39:46;;;;;;;167.30;76.25;;;5.30;99.90;;;;;;5056975;28;20029;-64
2022/11/26 09:42:42;;;;;;;142.40;70.50;;;5.30;99.90;;;;;;5060113;28;20043;-60
2022/11/26 09:45:40;;;;;;;141.48;66.72;;;5.40;99.90;;;;;;5057996;28;20025;-62
2022/11/26 09:48:15;;;;;;;137.77;67.80;;;5.40;99.90;;;;;;5066850;28;20024;-66
2022/11/26 09:50:42;;;;;;;141.55;64.45;;;5.30;99.90;;;;;;5063802;28;20028;-59
2022/11/26 09:53:27;;;;;;;;;;;5.40;99.90;;;;;;5073118;28;20025;-60
2022/11/26 09:55:54;;;;;;;138.93;66.00;;;5.40;99.90;;;;;;5072692;28;19912;-60
2022/11/26 09:58:26;;;;;;;128.73;58.85;;;5.40;99.90;;;;;;5072367;28;20074;-60
2022/11/26 10:00:53;;;;;;;144.15;66.10;;;5.40;99.90;;;;;;5072146;28;20383;-57
2022/11/26 10:03:20;;;;;;;;;;;5.50;99.90;;;;;;5065219;28;20029;-62
2022/11/26 10:06:08;;;;;;;119.95;55.63;;;5.50;99.90;;;;;;5057647;28;19996;-58
2022/11/26 10:08:56;;;;;;;112.13;51.28;;;5.50;99.90;;;;;;5058496;28;20030;-59
2022/11/26 10:11:32;;;;;;;108.07;52.20;;;5.50;99.90;;;;;;5062337;28;20033;-61
2022/11/26 10:14:50;;;;;;;112.85;54.08;;;5.60;99.90;;;;;;5057704;28;20050;-62
2022/11/26 10:17:37;;;;;;;123.60;55.03;;;5.60;99.90;;;;;;5070495;28;20048;-62
2022/11/26 10:20:27;;;;;;;137.27;57.13;;;5.60;99.90;;;;;;5064878;28;20499;-59
2022/11/26 10:23:04;;;;;;;124.70;52.97;;;5.60;99.90;;;;;;5088121;28;20051;-59
2022/11/26 10:25:38;;;;;;;120.40;52.15;;;5.60;99.90;;;;;;5063771;28;20024;-60
2022/11/26 10:28:25;;;;;;;130.32;57.40;;;5.70;99.90;;;;;;5061837;28;20021;-60
2022/11/26 10:31:00;;;;;;;147.38;59.20;;;5.70;99.90;;;;;;5062111;28;20056;-58
2022/11/26 10:33:56;;;;;;;163.50;64.10;;;5.70;99.90;;;;;;5062087;28;20115;-63
2022/11/26 10:36:25;;;;;;;169.68;65.70;;;5.80;99.90;;;;;;5055564;28;20051;-58
2022/11/26 10:38:54;;;;;;;128.15;51.47;;;5.80;99.90;;;;;;5056102;28;20043;-58
2022/11/26 10:41:22;;;;;;;139.32;55.33;;;5.80;99.90;;;;;;5063219;28;20033;-59
2022/11/26 10:43:48;;;;;;;124.75;54.15;;;5.90;99.90;;;;;;5058941;28;20118;-59
2022/11/26 10:46:30;;;;;;;171.63;65.25;;;5.80;99.90;;;;;;5061962;28;20079;-63
2022/11/26 10:49:15;;;;;;;125.70;54.58;;;5.80;99.90;;;;;;5063226;28;20380;-61
2022/11/26 10:51:44;;;;;;;132.48;59.63;;;5.90;99.90;;;;;;5056537;28;20025;-58
2022/11/26 10:54:24;;;;;;;145.43;59.13;;;5.90;99.90;;;;;;5065087;28;20100;-57
2022/11/26 10:56:53;;;;;;;139.57;59.85;;;5.80;99.90;;;;;;5064665;28;20382;-63
2022/11/26 10:59:23;;;;;;;129.65;55.70;;;5.80;99.90;;;;;;5062989;28;20028;-65
2022/11/26 11:01:50;;;;;;;138.52;59.40;;;5.90;99.90;;;;;;5061988;28;20020;-63
2022/11/26 11:04:22;;;;;;;122.57;54.78;;;5.90;99.90;;;;;;5064540;28;20044;-59
2022/11/26 11:06:47;;;;;;;102.25;48.83;;;5.90;99.90;;;;;;5064686;28;20043;-61
2022/11/26 11:09:31;;;;;;;101.35;48.08;;;5.90;99.90;;;;;;5066260;28;20032;-59
2022/11/26 11:12:12;;;;;;;95.65;48.00;;;5.90;99.90;;;;;;5063231;28;20024;-59
2022/11/26 11:14:39;;;;;;;96.05;44.50;;;5.90;99.90;;;;;;5059338;28;20012;-60
2022/11/26 11:17:05;;;;;;;96.13;42.25;;;5.90;99.90;;;;;;5061232;28;20037;-63
2022/11/26 11:19:32;;;;;;;97.40;44.30;;;5.90;99.90;;;;;;5061443;28;20028;-61
2022/11/26 11:21:58;;;;;;;92.70;41.90;;;5.90;99.90;;;;;;5061153;28;20028;-61
2022/11/26 11:24:26;;;;;;;87.22;39.00;;;6.00;99.90;;;;;;5062751;28;20025;-59
2022/11/26 11:26:55;;;;;;;94.20;41.88;;;5.90;99.90;;;;;;5057465;28;20488;-59
2022/11/26 11:29:27;;;;;;;80.55;38.67;;;6.00;99.90;;;;;;5059396;28;20021;-61
2022/11/26 11:31:54;;;;;;;81.65;39.65;;;6.00;99.90;;;;;;5058556;28;20025;-62
2022/11/26 11:34:30;;;;;;;81.25;40.17;;;6.10;99.90;;;;;;5060949;28;20036;-66
2022/11/26 11:37:03;;;;;;;86.53;40.00;;;6.00;99.90;;;;;;5060125;28;20055;-64
2022/11/26 11:39:31;;;;;;;88.03;42.45;;;6.10;99.90;;;;;;5056290;28;20029;-62
2022/11/26 11:42:00;;;;;;;91.55;41.55;;;6.10;99.90;;;;;;5060398;28;20116;-65
2022/11/26 11:44:48;;;;;;;87.45;41.08;;;6.10;99.90;;;;;;5058220;28;20388;-60
2022/11/26 11:47:16;;;;;;;86.35;41.45;;;6.10;99.90;;;;;;5070544;28;20423;-64
2022/11/26 11:50:21;;;;;;;101.05;46.80;;;6.10;99.90;;;;;;5056158;28;20035;-60
2022/11/26 11:53:23;;;;;;;97.85;46.10;;;6.10;99.90;;;;;;5059377;28;20016;-59
2022/11/26 11:55:55;;;;;;;92.18;43.83;;;6.10;99.90;;;;;;5030572;28;20041;-62
2022/11/26 11:58:39;;;;;;;104.60;50.00;;;6.20;99.90;;;;;;5030371;28;20033;-63
2022/11/26 12:01:23;;;;;;;98.95;47.75;;;6.20;99.90;;;;;;5029096;28;20063;-63
2022/11/26 12:04:08;;;;;;;87.43;48.38;;;6.20;99.90;;;;;;5029161;28;20109;-63
2022/11/26 12:06:53;;;;;;;92.75;44.92;;;6.30;99.90;;;;;;5028907;28;20069;-59
2022/11/26 12:09:41;;;;;;;87.75;45.35;;;6.30;99.90;;;;;;5029916;28;20104;-64
2022/11/26 12:12:30;;;;;;;83.95;43.78;;;6.30;99.90;;;;;;5029804;28;20122;-59
2022/11/26 12:15:10;;;;;;;87.40;43.75;;;6.40;99.90;;;;;;5026986;28;20029;-59
2022/11/26 12:17:41;;;;;;;88.10;45.13;;;6.40;99.90;;;;;;5027487;28;20090;-58
2022/11/26 12:20:22;;;;;;;91.60;45.42;;;6.40;99.90;;;;;;5028422;28;20021;-59
2022/11/26 12:22:57;;;;;;;80.85;40.67;;;6.40;99.90;;;;;;5029099;28;20033;-67
2022/11/26 12:25:31;;;;;;;77.32;42.65;;;6.40;99.90;;;;;;5029067;28;20511;-64
2022/11/26 12:28:16;;;;;;;88.80;48.25;;;6.40;99.90;;;;;;5029195;28;20026;-63
2022/11/26 12:30:54;;;;;;;93.75;50.42;;;6.40;99.90;;;;;;5030210;28;20051;-62
2022/11/26 12:33:32;;;;;;;72.82;39.20;;;6.40;99.90;;;;;;5029967;28;20061;-66
2022/11/26 12:36:00;;;;;;;;;;;6.50;99.90;;;;;;5030279;28;20072;-58
2022/11/26 12:38:38;;;;;;;56.67;31.35;;;6.50;99.90;;;;;;5029991;28;19963;-63
2022/11/26 12:41:09;;;;;;;51.40;29.63;;;6.60;99.90;;;;;;5030188;28;20385;-59
2022/11/26 12:44:03;;;;;;;53.38;29.60;;;6.60;99.90;;;;;;5029862;28;20104;-65